createdAt,value
2023-03-17T00:00:31.787Z,1008.72
2023-03-17T00:01:31.444Z,1008.77
2023-03-17T00:02:31.440Z,1008.83
2023-03-17T00:03:31.414Z,1008.85
2023-03-17T00:04:31.360Z,1008.84
2023-03-17T00:05:31.350Z,1008.88
2023-03-17T00:06:31.353Z,1008.87
2023-03-17T00:07:31.325Z,1008.84
2023-03-17T00:08:31.313Z,1008.82
2023-03-17T00:09:31.299Z,1008.81
2023-03-17T00:10:31.558Z,1008.83
2023-03-17T00:11:31.295Z,1008.81
2023-03-17T00:12:31.264Z,1008.77
2023-03-17T00:13:31.279Z,1008.79
2023-03-17T00:14:31.238Z,1008.77
2023-03-17T00:15:31.206Z,1008.78
2023-03-17T00:16:31.236Z,1008.76
2023-03-17T00:17:31.185Z,1008.77
2023-03-17T00:18:31.173Z,1008.75
2023-03-17T00:19:31.298Z,1008.80
2023-03-17T00:20:31.691Z,1008.79
2023-03-17T00:21:31.129Z,1008.72
2023-03-17T00:22:31.117Z,1008.74
2023-03-17T00:23:31.101Z,1008.76
2023-03-17T00:24:31.120Z,1008.80
2023-03-17T00:25:31.102Z,1008.76
2023-03-17T00:26:31.077Z,1008.77
2023-03-17T00:27:31.058Z,1008.69
2023-03-17T00:28:31.037Z,1008.67
2023-03-17T00:29:31.022Z,1008.68
2023-03-17T00:30:31.192Z,1008.64
2023-03-17T00:31:31.099Z,1008.65
2023-03-17T00:32:31.032Z,1008.68
2023-03-17T00:33:30.977Z,1008.60
2023-03-17T00:34:30.952Z,1008.64
2023-03-17T00:35:30.945Z,1008.64
2023-03-17T00:36:30.954Z,1008.61
2023-03-17T00:37:30.938Z,1008.65
2023-03-17T00:38:30.920Z,1008.69
2023-03-17T00:39:30.882Z,1008.75
2023-03-17T00:40:31.186Z,1008.68
2023-03-17T00:41:30.858Z,1008.72
2023-03-17T00:42:30.856Z,1008.69
2023-03-17T00:43:30.823Z,1008.67
2023-03-17T00:44:30.870Z,1008.67
2023-03-17T00:45:30.792Z,1008.62
2023-03-17T00:46:30.807Z,1008.57
2023-03-17T00:47:30.767Z,1008.60
2023-03-17T00:48:30.760Z,1008.59
2023-03-17T00:49:30.730Z,1008.50
2023-03-17T00:50:31.003Z,1008.48
2023-03-17T00:51:30.708Z,1008.45
2023-03-17T00:52:30.747Z,1008.45
2023-03-17T00:53:30.672Z,1008.40
2023-03-17T00:54:30.667Z,1008.43
2023-03-17T00:55:30.640Z,1008.30
2023-03-17T00:56:30.649Z,1008.32
2023-03-17T00:57:30.625Z,1008.30
2023-03-17T00:58:30.659Z,1008.22
2023-03-17T00:59:30.622Z,1008.27
2023-03-17T01:00:30.773Z,1008.22
2023-03-17T01:01:30.573Z,1008.19
2023-03-17T01:02:30.556Z,1008.17
2023-03-17T01:03:30.543Z,1008.13
2023-03-17T01:04:30.557Z,1008.12
2023-03-17T01:05:30.522Z,1008.15
2023-03-17T01:06:30.504Z,1008.14
2023-03-17T01:07:30.488Z,1008.07
2023-03-17T01:08:30.477Z,1008.14
2023-03-17T01:09:30.480Z,1008.06
2023-03-17T01:10:30.652Z,1008.05
2023-03-17T01:11:30.421Z,1008.06
2023-03-17T01:12:30.437Z,1008.11
2023-03-17T01:13:30.422Z,1008.10
2023-03-17T01:14:30.411Z,1008.14
2023-03-17T01:15:30.366Z,1008.17
2023-03-17T01:16:30.384Z,1008.04
2023-03-17T01:17:30.352Z,1008.08
2023-03-17T01:18:30.469Z,1008.04
2023-03-17T01:19:30.338Z,1008.09
2023-03-17T01:20:30.462Z,1008.04
2023-03-17T01:21:30.286Z,1008.10
2023-03-17T01:22:30.284Z,1008.11
2023-03-17T01:23:30.291Z,1008.10
2023-03-17T01:24:30.261Z,1008.07
2023-03-17T01:25:30.295Z,1008.00
2023-03-17T01:26:30.221Z,1008.01
2023-03-17T01:27:30.201Z,1008.01
2023-03-17T01:28:30.250Z,1008.01
2023-03-17T01:29:30.298Z,1008.00
2023-03-17T01:30:30.392Z,1007.99
2023-03-17T01:31:30.196Z,1008.00
2023-03-17T01:32:30.195Z,1007.97
2023-03-17T01:33:30.132Z,1008.01
2023-03-17T01:34:30.191Z,1007.87
2023-03-17T01:35:30.227Z,1007.84
2023-03-17T01:36:30.147Z,1007.80
2023-03-17T01:37:30.153Z,1007.74
2023-03-17T01:38:30.077Z,1007.73
2023-03-17T01:39:30.040Z,1007.73
2023-03-17T01:40:30.374Z,1007.76
2023-03-17T01:41:30.112Z,1007.74
2023-03-17T01:42:29.991Z,1007.71
2023-03-17T01:43:30.008Z,1007.72
2023-03-17T01:44:30.041Z,1007.68
2023-03-17T01:45:29.977Z,1007.64
2023-03-17T01:46:30.054Z,1007.58
2023-03-17T01:47:30.242Z,1007.50
2023-03-17T01:48:29.961Z,1007.45
2023-03-17T01:49:29.959Z,1007.45
2023-03-17T01:50:30.253Z,1007.56
2023-03-17T01:51:29.973Z,1007.48
2023-03-17T01:52:29.955Z,1007.58
2023-03-17T01:53:29.862Z,1007.59
2023-03-17T01:54:29.904Z,1007.52
2023-03-17T01:55:29.829Z,1007.57
2023-03-17T01:56:29.839Z,1007.56
2023-03-17T01:57:29.797Z,1007.59
2023-03-17T01:58:29.800Z,1007.54
2023-03-17T01:59:29.825Z,1007.62
2023-03-17T02:00:30.065Z,1007.51
2023-03-17T02:01:29.843Z,1007.57
2023-03-17T02:02:29.844Z,1007.53
2023-03-17T02:03:29.751Z,1007.52
2023-03-17T02:04:29.779Z,1007.51
2023-03-17T02:05:29.743Z,1007.55
2023-03-17T02:06:29.741Z,1007.57
2023-03-17T02:07:29.733Z,1007.51
2023-03-17T02:08:29.688Z,1007.48
2023-03-17T02:09:29.673Z,1007.50
2023-03-17T02:10:29.940Z,1007.50
2023-03-17T02:11:29.639Z,1007.49
2023-03-17T02:12:29.609Z,1007.54
2023-03-17T02:13:29.615Z,1007.53
2023-03-17T02:14:29.578Z,1007.58
2023-03-17T02:15:37.100Z,1007.59
2023-03-17T02:16:29.533Z,1007.63
2023-03-17T02:17:29.513Z,1007.62
2023-03-17T02:18:29.513Z,1007.65
2023-03-17T02:19:29.487Z,1007.62
2023-03-17T02:20:29.857Z,1007.71
2023-03-17T02:21:29.490Z,1007.72
2023-03-17T02:22:29.426Z,1007.67
2023-03-17T02:23:29.443Z,1007.69
2023-03-17T02:24:29.431Z,1007.69
2023-03-17T02:25:29.399Z,1007.67
2023-03-17T02:26:29.391Z,1007.67
2023-03-17T02:27:29.366Z,1007.61
2023-03-17T02:28:29.414Z,1007.57
2023-03-17T02:29:29.364Z,1007.61
2023-03-17T02:30:29.600Z,1007.58
2023-03-17T02:31:29.317Z,1007.59
2023-03-17T02:32:29.415Z,1007.53
2023-03-17T02:33:29.311Z,1007.56
2023-03-17T02:34:29.370Z,1007.60
2023-03-17T02:35:29.295Z,1007.62
2023-03-17T02:36:29.336Z,1007.59
2023-03-17T02:37:29.242Z,1007.60
2023-03-17T02:38:29.242Z,1007.53
2023-03-17T02:39:29.264Z,1007.59
2023-03-17T02:40:29.431Z,1007.52
2023-03-17T02:41:29.201Z,1007.52
2023-03-17T02:42:29.189Z,1007.51
2023-03-17T02:43:29.149Z,1007.53
2023-03-17T02:44:29.149Z,1007.49
2023-03-17T02:45:29.139Z,1007.52
2023-03-17T02:46:29.226Z,1007.55
2023-03-17T02:47:29.100Z,1007.54
2023-03-17T02:48:29.121Z,1007.58
2023-03-17T02:49:29.085Z,1007.63
2023-03-17T02:50:29.482Z,1007.60
2023-03-17T02:51:29.054Z,1007.62
2023-03-17T02:52:29.054Z,1007.61
2023-03-17T02:53:29.069Z,1007.64
2023-03-17T02:54:29.013Z,1007.57
2023-03-17T02:55:29.098Z,1007.57
2023-03-17T02:56:28.991Z,1007.55
2023-03-17T02:57:28.993Z,1007.56
2023-03-17T02:58:28.989Z,1007.59
2023-03-17T02:59:28.935Z,1007.56
2023-03-17T03:00:29.283Z,1007.52
2023-03-17T03:01:28.980Z,1007.48
2023-03-17T03:02:28.946Z,1007.55
2023-03-17T03:03:28.877Z,1007.48
2023-03-17T03:04:28.946Z,1007.49
2023-03-17T03:05:28.874Z,1007.45
2023-03-17T03:06:28.869Z,1007.46
2023-03-17T03:07:28.851Z,1007.47
2023-03-17T03:08:28.827Z,1007.51
2023-03-17T03:09:28.884Z,1007.50
2023-03-17T03:10:28.967Z,1007.51
2023-03-17T03:11:28.807Z,1007.50
2023-03-17T03:12:28.771Z,1007.51
2023-03-17T03:13:28.800Z,1007.52
2023-03-17T03:14:28.740Z,1007.53
2023-03-17T03:15:28.781Z,1007.52
2023-03-17T03:16:28.730Z,1007.52
2023-03-17T03:17:28.718Z,1007.53
2023-03-17T03:18:28.681Z,1007.51
2023-03-17T03:19:28.696Z,1007.52
2023-03-17T03:20:28.826Z,1007.42
2023-03-17T03:21:28.668Z,1007.44
2023-03-17T03:22:28.630Z,1007.45
2023-03-17T03:23:28.615Z,1007.42
2023-03-17T03:24:28.598Z,1007.48
2023-03-17T03:25:28.599Z,1007.53
2023-03-17T03:26:28.642Z,1007.54
2023-03-17T03:27:28.574Z,1007.59
2023-03-17T03:28:28.567Z,1007.50
2023-03-17T03:29:28.553Z,1007.50
2023-03-17T03:30:28.979Z,1007.51
2023-03-17T03:31:28.535Z,1007.52
2023-03-17T03:32:28.565Z,1007.53
2023-03-17T03:33:28.513Z,1007.49
2023-03-17T03:34:28.479Z,1007.48
2023-03-17T03:35:28.446Z,1007.50
2023-03-17T03:36:28.457Z,1007.53
2023-03-17T03:37:28.452Z,1007.48
2023-03-17T03:38:28.414Z,1007.50
2023-03-17T03:39:28.430Z,1007.52
2023-03-17T03:40:28.635Z,1007.51
2023-03-17T03:41:28.393Z,1007.49
2023-03-17T03:42:28.346Z,1007.52
2023-03-17T03:43:28.362Z,1007.47
2023-03-17T03:44:28.355Z,1007.43
2023-03-17T03:45:28.323Z,1007.42
2023-03-17T03:46:28.336Z,1007.39
2023-03-17T03:47:28.305Z,1007.43
2023-03-17T03:48:28.285Z,1007.40
2023-03-17T03:49:28.287Z,1007.41
2023-03-17T03:50:28.588Z,1007.35
2023-03-17T03:51:28.252Z,1007.39
2023-03-17T03:52:28.266Z,1007.41
2023-03-17T03:53:28.210Z,1007.43
2023-03-17T03:54:28.205Z,1007.44
2023-03-17T03:55:28.193Z,1007.42
2023-03-17T03:56:28.182Z,1007.39
2023-03-17T03:57:28.167Z,1007.34
2023-03-17T03:58:28.165Z,1007.30
2023-03-17T03:59:28.168Z,1007.30
2023-03-17T04:00:28.513Z,1007.32
2023-03-17T04:01:28.099Z,1007.34
2023-03-17T04:02:28.139Z,1007.48
2023-03-17T04:03:28.097Z,1007.49
2023-03-17T04:04:28.110Z,1007.52
2023-03-17T04:05:28.104Z,1007.52
2023-03-17T04:06:28.068Z,1007.48
2023-03-17T04:07:28.050Z,1007.50
2023-03-17T04:08:28.043Z,1007.41
2023-03-17T04:09:28.025Z,1007.39
2023-03-17T04:10:28.092Z,1007.42
2023-03-17T04:11:27.990Z,1007.40
2023-03-17T04:12:27.973Z,1007.41
2023-03-17T04:13:27.945Z,1007.41
2023-03-17T04:14:27.986Z,1007.39
2023-03-17T04:15:27.924Z,1007.40
2023-03-17T04:16:27.950Z,1007.43
2023-03-17T04:17:27.900Z,1007.40
2023-03-17T04:18:27.884Z,1007.42
2023-03-17T04:19:27.857Z,1007.38
2023-03-17T04:20:28.081Z,1007.41
2023-03-17T04:21:27.860Z,1007.37
2023-03-17T04:22:27.850Z,1007.38
2023-03-17T04:23:27.852Z,1007.38
2023-03-17T04:24:27.794Z,1007.38
2023-03-17T04:25:27.811Z,1007.35
2023-03-17T04:26:27.792Z,1007.32
2023-03-17T04:27:27.759Z,1007.38
2023-03-17T04:28:27.781Z,1007.39
2023-03-17T04:29:27.767Z,1007.39
2023-03-17T04:30:27.804Z,1007.40
2023-03-17T04:31:27.797Z,1007.38
2023-03-17T04:32:27.922Z,1007.35
2023-03-17T04:33:27.717Z,1007.37
2023-03-17T04:34:27.662Z,1007.37
2023-03-17T04:35:27.654Z,1007.36
2023-03-17T04:36:27.676Z,1007.37
2023-03-17T04:37:27.637Z,1007.40
2023-03-17T04:38:27.619Z,1007.40
2023-03-17T04:39:27.623Z,1007.33
2023-03-17T04:40:27.694Z,1007.34
2023-03-17T04:41:27.598Z,1007.39
2023-03-17T04:42:27.572Z,1007.41
2023-03-17T04:43:27.552Z,1007.43
2023-03-17T04:44:27.516Z,1007.50
2023-03-17T04:45:27.555Z,1007.45
2023-03-17T04:46:27.502Z,1007.46
2023-03-17T04:47:27.506Z,1007.40
2023-03-17T04:48:27.511Z,1007.41
2023-03-17T04:49:27.473Z,1007.41
2023-03-17T04:50:27.490Z,1007.45
2023-03-17T04:51:27.460Z,1007.47
2023-03-17T04:52:27.502Z,1007.49
2023-03-17T04:53:27.471Z,1007.52
2023-03-17T04:54:27.472Z,1007.50
2023-03-17T04:55:27.471Z,1007.48
2023-03-17T04:56:27.373Z,1007.45
2023-03-17T04:57:27.358Z,1007.44
2023-03-17T04:58:31.125Z,1007.43
2023-03-17T04:59:27.357Z,1007.46
2023-03-17T05:00:27.385Z,1007.42
2023-03-17T05:01:27.373Z,1007.44
2023-03-17T05:02:27.380Z,1007.38
2023-03-17T05:03:28.160Z,1007.34
2023-03-17T05:04:31.644Z,1007.32
2023-03-17T05:05:27.289Z,1007.34
2023-03-17T05:06:27.265Z,1007.31
2023-03-17T05:07:27.238Z,1007.33
2023-03-17T05:08:27.217Z,1007.32
2023-03-17T05:09:27.208Z,1007.30
2023-03-17T05:10:27.169Z,1007.34
2023-03-17T05:11:27.204Z,1007.32
2023-03-17T05:12:27.183Z,1007.35
2023-03-17T05:13:27.122Z,1007.36
2023-03-17T05:14:27.150Z,1007.41
2023-03-17T05:15:27.140Z,1007.46
2023-03-17T05:16:27.125Z,1007.44
2023-03-17T05:17:27.115Z,1007.44
2023-03-17T05:18:27.087Z,1007.41
2023-03-17T05:19:27.080Z,1007.42
2023-03-17T05:20:27.051Z,1007.47
2023-03-17T05:21:27.093Z,1007.46
2023-03-17T05:22:27.017Z,1007.51
2023-03-17T05:23:27.017Z,1007.47
2023-03-17T05:24:26.984Z,1007.48
2023-03-17T05:25:26.987Z,1007.50
2023-03-17T05:26:26.951Z,1007.46
2023-03-17T05:27:26.962Z,1007.45
2023-03-17T05:28:26.909Z,1007.47
2023-03-17T05:29:26.926Z,1007.48
2023-03-17T05:30:26.879Z,1007.45
2023-03-17T05:31:26.981Z,1007.48
2023-03-17T05:32:26.884Z,1007.54
2023-03-17T05:33:26.840Z,1007.57
2023-03-17T05:34:26.846Z,1007.55
2023-03-17T05:35:26.830Z,1007.56
2023-03-17T05:36:26.841Z,1007.56
2023-03-17T05:37:26.802Z,1007.55
2023-03-17T05:38:26.805Z,1007.56
2023-03-17T05:39:26.810Z,1007.54
2023-03-17T05:40:26.753Z,1007.52
2023-03-17T05:41:26.753Z,1007.57
2023-03-17T05:42:26.745Z,1007.55
2023-03-17T05:43:26.734Z,1007.53
2023-03-17T05:44:26.703Z,1007.53
2023-03-17T05:45:26.734Z,1007.49
2023-03-17T05:46:26.724Z,1007.50
2023-03-17T05:47:26.711Z,1007.52
2023-03-17T05:48:26.809Z,1007.50
2023-03-17T05:49:26.629Z,1007.52
2023-03-17T05:50:26.622Z,1007.55
2023-03-17T05:51:26.618Z,1007.55
2023-03-17T05:52:26.612Z,1007.52
2023-03-17T05:53:26.580Z,1007.55
2023-03-17T05:54:26.584Z,1007.46
2023-03-17T05:55:26.557Z,1007.47
2023-03-17T05:56:26.573Z,1007.46
2023-03-17T05:57:26.540Z,1007.43
2023-03-17T05:58:26.518Z,1007.41
2023-03-17T05:59:26.507Z,1007.41
2023-03-17T06:00:26.477Z,1007.39
2023-03-17T06:01:26.480Z,1007.37
2023-03-17T06:02:26.484Z,1007.35
2023-03-17T06:03:26.473Z,1007.38
2023-03-17T06:04:26.428Z,1007.40
2023-03-17T06:05:26.412Z,1007.31
2023-03-17T06:06:26.441Z,1007.28
2023-03-17T06:07:26.376Z,1007.21
2023-03-17T06:08:26.384Z,1007.19
2023-03-17T06:09:26.363Z,1007.25
2023-03-17T06:10:26.349Z,1007.20
2023-03-17T06:11:26.381Z,1007.21
2023-03-17T06:12:26.383Z,1007.23
2023-03-17T06:13:26.304Z,1007.25
2023-03-17T06:14:27.189Z,1007.19
2023-03-17T06:15:26.412Z,1007.23
2023-03-17T06:16:26.317Z,1007.31
2023-03-17T06:17:26.268Z,1007.31
2023-03-17T06:18:26.290Z,1007.40
2023-03-17T06:19:26.253Z,1007.31
2023-03-17T06:20:26.228Z,1007.29
2023-03-17T06:21:26.231Z,1007.31
2023-03-17T06:22:26.182Z,1007.29
2023-03-17T06:23:26.352Z,1007.25
2023-03-17T06:24:26.163Z,1007.23
2023-03-17T06:25:26.137Z,1007.24
2023-03-17T06:26:26.141Z,1007.26
2023-03-17T06:27:26.110Z,1007.22
2023-03-17T06:28:26.111Z,1007.23
2023-03-17T06:29:26.094Z,1007.22
2023-03-17T06:30:26.074Z,1007.24
2023-03-17T06:31:26.103Z,1007.22
2023-03-17T06:32:26.062Z,1007.21
2023-03-17T06:33:26.045Z,1007.16
2023-03-17T06:34:26.026Z,1007.16
2023-03-17T06:35:26.087Z,1007.19
2023-03-17T06:36:26.003Z,1007.22
2023-03-17T06:37:26.055Z,1007.28
2023-03-17T06:38:26.006Z,1007.24
2023-03-17T06:39:25.958Z,1007.21
2023-03-17T06:40:25.981Z,1007.23
2023-03-17T06:41:25.916Z,1007.24
2023-03-17T06:42:25.913Z,1007.19
2023-03-17T06:43:25.926Z,1007.21
2023-03-17T06:44:25.898Z,1007.23
2023-03-17T06:45:25.877Z,1007.22
2023-03-17T06:46:25.867Z,1007.26
2023-03-17T06:47:26.168Z,1007.18
2023-03-17T06:48:25.856Z,1007.18
2023-03-17T06:49:25.848Z,1007.18
2023-03-17T06:50:25.806Z,1007.16
2023-03-17T06:51:25.846Z,1007.19
2023-03-17T06:52:25.794Z,1007.24
2023-03-17T06:53:25.759Z,1007.24
2023-03-17T06:54:25.782Z,1007.20
2023-03-17T06:55:25.732Z,1007.25
2023-03-17T06:56:30.102Z,1007.22
2023-03-17T06:57:26.694Z,1007.25
2023-03-17T06:58:25.673Z,1007.19
2023-03-17T06:59:25.666Z,1007.20
2023-03-17T07:00:25.681Z,1007.27
2023-03-17T07:01:25.720Z,1007.26
2023-03-17T07:02:25.656Z,1007.28
2023-03-17T07:03:25.605Z,1007.28
2023-03-17T07:04:25.653Z,1007.25
2023-03-17T07:05:25.590Z,1007.23
2023-03-17T07:06:25.561Z,1007.37
2023-03-17T07:07:25.549Z,1007.26
2023-03-17T07:08:25.527Z,1007.30
2023-03-17T07:09:25.516Z,1007.31
2023-03-17T07:10:25.544Z,1007.29
2023-03-17T07:11:25.512Z,1007.32
2023-03-17T07:12:25.502Z,1007.31
2023-03-17T07:13:25.464Z,1007.35
2023-03-17T07:14:25.471Z,1007.31
2023-03-17T07:15:25.490Z,1007.36
2023-03-17T07:16:25.489Z,1007.34
2023-03-17T07:17:25.410Z,1007.37
2023-03-17T07:18:25.412Z,1007.38
2023-03-17T07:19:25.379Z,1007.39
2023-03-17T07:20:25.380Z,1007.39
2023-03-17T07:21:25.359Z,1007.43
2023-03-17T07:22:25.330Z,1007.43
2023-03-17T07:23:25.361Z,1007.37
2023-03-17T07:24:25.353Z,1007.36
2023-03-17T07:25:25.284Z,1007.29
2023-03-17T07:26:25.368Z,1007.25
2023-03-17T07:27:25.247Z,1007.32
2023-03-17T07:28:25.274Z,1007.40
2023-03-17T07:29:25.305Z,1007.40
2023-03-17T07:30:25.272Z,1007.40
2023-03-17T07:31:25.288Z,1007.41
2023-03-17T07:32:25.193Z,1007.43
2023-03-17T07:33:25.199Z,1007.40
2023-03-17T07:34:25.181Z,1007.41
2023-03-17T07:35:25.232Z,1007.39
2023-03-17T07:36:25.134Z,1007.44
2023-03-17T07:37:25.141Z,1007.42
2023-03-17T07:38:25.122Z,1007.45
2023-03-17T07:39:25.128Z,1007.41
2023-03-17T07:40:25.114Z,1007.41
2023-03-17T07:41:25.094Z,1007.40
2023-03-17T07:42:25.064Z,1007.43
2023-03-17T07:43:25.071Z,1007.40
2023-03-17T07:44:25.078Z,1007.37
2023-03-17T07:45:25.183Z,1007.40
2023-03-17T07:46:25.132Z,1007.37
2023-03-17T07:47:25.017Z,1007.41
2023-03-17T07:48:24.997Z,1007.44
2023-03-17T07:49:40.068Z,1007.37
2023-03-17T07:50:25.975Z,1007.39
2023-03-17T07:51:24.943Z,1007.36
2023-03-17T07:52:24.948Z,1007.37
2023-03-17T07:53:24.919Z,1007.33
2023-03-17T07:54:24.934Z,1007.30
2023-03-17T07:55:24.907Z,1007.28
2023-03-17T07:56:24.915Z,1007.28
2023-03-17T07:57:24.934Z,1007.29
2023-03-17T07:58:24.952Z,1007.25
2023-03-17T07:59:24.860Z,1007.24
2023-03-17T08:00:24.830Z,1007.25
2023-03-17T08:01:24.842Z,1007.20
2023-03-17T08:02:24.889Z,1007.24
2023-03-17T08:03:24.818Z,1007.22
2023-03-17T08:04:24.819Z,1007.25
2023-03-17T08:05:24.778Z,1007.24
2023-03-17T08:06:24.771Z,1007.25
2023-03-17T08:07:24.746Z,1007.21
2023-03-17T08:08:24.727Z,1007.20
2023-03-17T08:09:24.759Z,1007.21
2023-03-17T08:10:24.731Z,1007.19
2023-03-17T08:11:24.720Z,1007.24
2023-03-17T08:12:24.691Z,1007.24
2023-03-17T08:13:35.876Z,1007.32
2023-03-17T08:14:24.638Z,1007.27
2023-03-17T08:15:24.604Z,1007.32
2023-03-17T08:16:24.628Z,1007.33
2023-03-17T08:17:24.601Z,1007.29
2023-03-17T08:19:20.206Z,1007.36
2023-03-17T08:20:20.037Z,1007.33
2023-03-17T08:21:20.069Z,1007.29
2023-03-17T08:22:20.020Z,1007.27
2023-03-17T08:23:20.244Z,1007.29
2023-03-17T08:24:19.980Z,1007.31
2023-03-17T08:25:19.986Z,1007.33
2023-03-17T08:26:20.029Z,1007.31
2023-03-17T08:27:19.963Z,1007.32
2023-03-17T08:28:19.933Z,1007.34
2023-03-17T08:29:19.913Z,1007.37
2023-03-17T08:30:19.954Z,1007.42
2023-03-17T08:31:19.929Z,1007.36
2023-03-17T08:32:19.879Z,1007.38
2023-03-17T08:33:20.002Z,1007.40
2023-03-17T08:34:19.847Z,1007.37
2023-03-17T08:35:19.867Z,1007.43
2023-03-17T08:36:19.843Z,1007.48
2023-03-17T08:37:19.984Z,1007.56
2023-03-17T08:38:19.811Z,1007.56
2023-03-17T08:39:19.782Z,1007.51
2023-03-17T08:40:19.789Z,1007.46
2023-03-17T08:41:19.749Z,1007.43
2023-03-17T08:42:19.768Z,1007.40
2023-03-17T08:43:19.715Z,1007.44
2023-03-17T08:44:19.706Z,1007.44
2023-03-17T08:45:19.689Z,1007.43
2023-03-17T08:46:19.739Z,1007.43
2023-03-17T08:47:19.705Z,1007.42
2023-03-17T08:48:19.683Z,1007.39
2023-03-17T08:49:19.794Z,1007.35
2023-03-17T08:50:19.719Z,1007.37
2023-03-17T08:51:22.852Z,1007.37
2023-03-17T08:52:19.590Z,1007.35
2023-03-17T08:53:19.592Z,1007.41
2023-03-17T08:54:19.651Z,1007.38
2023-03-17T08:55:19.551Z,1007.42
2023-03-17T08:56:19.541Z,1007.38
2023-03-17T08:57:19.534Z,1007.38
2023-03-17T08:58:19.526Z,1007.37
2023-03-17T08:59:19.515Z,1007.34
2023-03-17T09:00:19.485Z,1007.35
2023-03-17T09:01:19.656Z,1007.35
2023-03-17T09:02:19.491Z,1007.35
2023-03-17T09:03:19.574Z,1007.32
2023-03-17T09:04:19.437Z,1007.28
2023-03-17T09:05:19.448Z,1007.29
2023-03-17T09:06:19.515Z,1007.28
2023-03-17T09:07:19.409Z,1007.28
2023-03-17T09:08:19.477Z,1007.32
2023-03-17T09:09:19.381Z,1007.30
2023-03-17T09:10:19.396Z,1007.34
2023-03-17T09:11:19.340Z,1007.29
2023-03-17T09:12:19.364Z,1007.26
2023-03-17T09:13:19.325Z,1007.23
2023-03-17T09:14:19.410Z,1007.19
2023-03-17T09:15:19.302Z,1007.26
2023-03-17T09:16:19.346Z,1007.21
2023-03-17T09:17:19.271Z,1007.28
2023-03-17T09:18:21.905Z,1007.25
2023-03-17T09:19:19.296Z,1007.29
2023-03-17T09:20:19.235Z,1007.27
2023-03-17T09:21:19.201Z,1007.29
2023-03-17T09:22:19.210Z,1007.29
2023-03-17T09:23:19.190Z,1007.28
2023-03-17T09:24:19.151Z,1007.22
2023-03-17T09:25:19.188Z,1007.22
2023-03-17T09:26:19.153Z,1007.18
2023-03-17T09:27:19.154Z,1007.19
2023-03-17T09:28:19.198Z,1007.23
2023-03-17T09:29:19.200Z,1007.24
2023-03-17T09:30:19.115Z,1007.30
2023-03-17T09:31:19.107Z,1007.28
2023-03-17T09:32:19.099Z,1007.23
2023-03-17T09:33:19.182Z,1007.27
2023-03-17T09:34:19.016Z,1007.22
2023-03-17T09:35:19.006Z,1007.23
2023-03-17T09:36:18.995Z,1007.24
2023-03-17T09:37:18.999Z,1007.27
2023-03-17T09:38:19.025Z,1007.28
2023-03-17T09:39:18.956Z,1007.33
2023-03-17T09:40:18.939Z,1007.32
2023-03-17T09:41:18.946Z,1007.29
2023-03-17T09:42:18.918Z,1007.31
2023-03-17T09:43:18.926Z,1007.27
2023-03-17T09:44:18.878Z,1007.26
2023-03-17T09:45:18.900Z,1007.20
2023-03-17T09:46:18.923Z,1007.19
2023-03-17T09:47:18.867Z,1007.19
2023-03-17T09:48:18.859Z,1007.18
2023-03-17T09:49:18.847Z,1007.20
2023-03-17T09:50:18.801Z,1007.17
2023-03-17T09:51:18.833Z,1007.12
2023-03-17T09:52:18.871Z,1007.17
2023-03-17T09:53:18.776Z,1007.14
2023-03-17T09:54:18.768Z,1007.19
2023-03-17T09:55:18.734Z,1007.18
2023-03-17T09:56:18.738Z,1007.17
2023-03-17T09:57:18.723Z,1007.14
2023-03-17T09:58:18.740Z,1007.16
2023-03-17T09:59:18.693Z,1007.21
2023-03-17T10:00:18.674Z,1007.14
2023-03-17T10:01:18.738Z,1007.17
2023-03-17T10:02:18.689Z,1007.16
2023-03-17T10:03:18.642Z,1007.19
2023-03-17T10:04:18.992Z,1007.22
2023-03-17T10:05:18.643Z,1007.17
2023-03-17T10:06:18.614Z,1007.20
2023-03-17T10:07:18.584Z,1007.16
2023-03-17T10:08:30.624Z,1007.18
2023-03-17T10:09:19.574Z,1007.15
2023-03-17T10:10:18.535Z,1007.14
2023-03-17T10:11:18.524Z,1007.16
2023-03-17T10:12:18.527Z,1007.13
2023-03-17T10:13:18.508Z,1007.13
2023-03-17T10:14:18.488Z,1007.10
2023-03-17T10:15:18.486Z,1007.11
2023-03-17T10:16:18.585Z,1007.08
2023-03-17T10:17:18.455Z,1007.06
2023-03-17T10:18:18.445Z,1007.08
2023-03-17T10:19:18.415Z,1007.11
2023-03-17T10:20:18.393Z,1007.16
2023-03-17T10:21:18.399Z,1007.14
2023-03-17T10:22:18.407Z,1007.11
2023-03-17T10:23:18.388Z,1007.10
2023-03-17T10:24:18.351Z,1007.05
2023-03-17T10:25:18.380Z,1007.07
2023-03-17T10:26:18.364Z,1007.05
2023-03-17T10:27:18.313Z,1007.08
2023-03-17T10:28:18.298Z,1007.11
2023-03-17T10:29:18.274Z,1007.12
2023-03-17T10:30:18.293Z,1007.13
2023-03-17T10:31:18.352Z,1007.16
2023-03-17T10:32:18.239Z,1007.10
2023-03-17T10:33:18.301Z,1007.11
2023-03-17T10:34:18.235Z,1007.09
2023-03-17T10:35:18.235Z,1007.08
2023-03-17T10:36:18.212Z,1007.13
2023-03-17T10:37:18.190Z,1007.17
2023-03-17T10:38:18.172Z,1007.09
2023-03-17T10:39:18.141Z,1007.07
2023-03-17T10:40:19.660Z,1007.08
2023-03-17T10:41:18.185Z,1007.03
2023-03-17T10:42:18.109Z,1006.97
2023-03-17T10:43:18.117Z,1007.00
2023-03-17T10:44:18.075Z,1007.01
2023-03-17T10:45:18.106Z,1006.96
2023-03-17T10:46:18.121Z,1007.02
2023-03-17T10:47:18.048Z,1007.03
2023-03-17T10:48:18.043Z,1007.02
2023-03-17T10:49:18.024Z,1006.99
2023-03-17T10:50:17.990Z,1007.00
2023-03-17T10:51:18.005Z,1006.97
2023-03-17T10:52:17.980Z,1007.01
2023-03-17T10:53:17.951Z,1006.99
2023-03-17T10:54:17.959Z,1006.95
2023-03-17T10:55:17.969Z,1006.95
2023-03-17T10:56:17.894Z,1006.96
2023-03-17T10:57:17.898Z,1006.94
2023-03-17T10:58:17.895Z,1006.96
2023-03-17T10:59:17.879Z,1006.95
2023-03-17T11:00:18.030Z,1006.92
2023-03-17T11:01:17.957Z,1006.94
2023-03-17T11:02:17.838Z,1006.91
2023-03-17T11:03:17.811Z,1006.94
2023-03-17T11:04:17.839Z,1006.88
2023-03-17T11:05:17.796Z,1006.86
2023-03-17T11:06:17.779Z,1006.83
2023-03-17T11:07:17.790Z,1006.79
2023-03-17T11:08:17.774Z,1006.78
2023-03-17T11:09:17.762Z,1006.79
2023-03-17T11:10:17.747Z,1006.82
2023-03-17T11:11:17.717Z,1006.84
2023-03-17T11:12:17.700Z,1006.86
2023-03-17T11:13:17.700Z,1006.90
2023-03-17T11:14:17.681Z,1006.90
2023-03-17T11:15:17.666Z,1006.93
2023-03-17T11:16:17.686Z,1006.84
2023-03-17T11:17:17.673Z,1006.86
2023-03-17T11:18:17.645Z,1006.78
2023-03-17T11:19:17.605Z,1006.74
2023-03-17T11:20:17.811Z,1006.77
2023-03-17T11:21:17.603Z,1006.75
2023-03-17T11:22:17.577Z,1006.72
2023-03-17T11:23:17.565Z,1006.73
2023-03-17T11:24:17.537Z,1006.69
2023-03-17T11:25:17.538Z,1006.69
2023-03-17T11:26:17.532Z,1006.70
2023-03-17T11:27:17.502Z,1006.72
2023-03-17T11:28:17.529Z,1006.70
2023-03-17T11:29:17.492Z,1006.75
2023-03-17T11:30:17.533Z,1006.71
2023-03-17T11:31:17.459Z,1006.73
2023-03-17T11:32:17.447Z,1006.72
2023-03-17T11:33:17.408Z,1006.70
2023-03-17T11:34:17.498Z,1006.67
2023-03-17T11:35:17.401Z,1006.72
2023-03-17T11:36:17.437Z,1006.66
2023-03-17T11:37:17.375Z,1006.68
2023-03-17T11:38:17.365Z,1006.69
2023-03-17T11:39:17.350Z,1006.69
2023-03-17T11:40:17.321Z,1006.68
2023-03-17T11:41:17.319Z,1006.70
2023-03-17T11:42:17.309Z,1006.69
2023-03-17T11:43:17.276Z,1006.69
2023-03-17T11:44:17.288Z,1006.63
2023-03-17T11:45:17.307Z,1006.59
2023-03-17T11:46:17.279Z,1006.59
2023-03-17T11:47:17.226Z,1006.54
2023-03-17T11:48:17.201Z,1006.54
2023-03-17T11:49:17.218Z,1006.59
2023-03-17T11:50:17.233Z,1006.47
2023-03-17T11:51:17.158Z,1006.51
2023-03-17T11:52:17.156Z,1006.51
2023-03-17T11:53:17.148Z,1006.40
2023-03-17T11:54:17.152Z,1006.42
2023-03-17T11:55:17.150Z,1006.43
2023-03-17T11:56:17.125Z,1006.43
2023-03-17T11:57:17.090Z,1006.42
2023-03-17T11:58:17.100Z,1006.39
2023-03-17T11:59:17.066Z,1006.41
2023-03-17T12:00:17.066Z,1006.46
2023-03-17T12:01:17.031Z,1006.40
2023-03-17T12:02:17.005Z,1006.45
2023-03-17T12:03:17.093Z,1006.44
2023-03-17T12:04:17.091Z,1006.37
2023-03-17T12:05:17.006Z,1006.44
2023-03-17T12:06:16.962Z,1006.43